createdAt,value
2019-05-09T00:01:57.987Z,4.20
2019-05-09T00:06:59.494Z,3.83
2019-05-09T00:12:01.079Z,3.77
2019-05-09T00:17:03.688Z,3.67
2019-05-09T00:22:05.422Z,4.57
2019-05-09T00:27:06.869Z,4.67
2019-05-09T00:32:08.360Z,4.30
2019-05-09T00:37:09.837Z,4.90
2019-05-09T00:42:13.528Z,4.80
2019-05-09T00:47:14.815Z,5.27
2019-05-09T00:52:16.293Z,5.07
2019-05-09T00:57:17.821Z,5.53
2019-05-09T01:02:19.329Z,5.87
2019-05-09T01:07:20.745Z,5.90
2019-05-09T01:12:23.531Z,6.03
2019-05-09T01:17:25.178Z,6.30
2019-05-09T01:22:26.669Z,5.97
2019-05-09T01:27:28.212Z,6.07
2019-05-09T01:32:29.733Z,6.03
2019-05-09T01:37:31.262Z,5.90
2019-05-09T01:42:33.778Z,5.50
2019-05-09T01:47:35.433Z,5.77
2019-05-09T01:52:36.991Z,5.03
2019-05-09T01:57:38.461Z,5.07
2019-05-09T02:02:39.974Z,5.13
2019-05-09T02:07:43.281Z,5.40
2019-05-09T02:12:44.869Z,4.80
2019-05-09T02:17:57.775Z,5.10
2019-05-09T02:22:49.615Z,4.07
2019-05-09T02:27:51.134Z,4.60
2019-05-09T02:32:54.687Z,4.37
2019-05-09T02:37:58.720Z,4.10
2019-05-09T02:42:59.503Z,3.73
2019-05-09T02:48:01.133Z,3.97
2019-05-09T02:53:02.528Z,4.10
2019-05-09T02:58:04.054Z,5.37
2019-05-09T03:03:08.814Z,6.30
2019-05-09T03:08:09.709Z,6.27
2019-05-09T03:13:11.507Z,6.90
2019-05-09T03:18:13.020Z,5.90
2019-05-09T03:23:14.461Z,5.10
2019-05-09T03:28:18.446Z,5.00
2019-05-09T03:33:20.337Z,5.00
2019-05-09T03:38:22.017Z,5.40
2019-05-09T03:43:23.567Z,5.40
2019-05-09T03:48:25.069Z,4.87
2019-05-09T03:53:27.606Z,5.70
2019-05-09T03:58:29.055Z,5.23
2019-05-09T04:03:30.466Z,5.03
2019-05-09T04:08:31.965Z,4.60
2019-05-09T04:13:33.453Z,5.25
2019-05-09T04:18:34.961Z,4.97
2019-05-09T04:23:37.831Z,6.10
2019-05-09T04:28:40.027Z,4.93
2019-05-09T04:33:41.583Z,5.90
2019-05-09T04:38:43.145Z,5.37
2019-05-09T04:43:44.694Z,4.50
2019-05-09T04:48:47.583Z,4.73
2019-05-09T04:53:49.443Z,5.00
2019-05-09T04:58:50.911Z,4.97
2019-05-09T05:03:52.501Z,4.50
2019-05-09T05:08:54.085Z,4.63
2019-05-09T05:13:55.659Z,4.90
2019-05-09T05:18:58.545Z,4.97
2019-05-09T05:24:00.043Z,4.90
2019-05-09T05:29:01.594Z,4.93
2019-05-09T05:34:03.108Z,5.43
2019-05-09T05:39:07.535Z,6.37
2019-05-09T05:44:09.156Z,5.10
2019-05-09T05:49:10.691Z,4.73
2019-05-09T05:54:12.228Z,5.10
2019-05-09T05:59:14.059Z,4.10
2019-05-09T06:04:18.306Z,3.93
2019-05-09T06:09:19.853Z,3.73
2019-05-09T06:14:21.389Z,3.93
2019-05-09T06:19:23.089Z,3.87
2019-05-09T06:24:24.653Z,4.17
2019-05-09T06:29:28.670Z,4.20
2019-05-09T06:34:29.560Z,3.70
2019-05-09T06:39:31.100Z,4.77
2019-05-09T06:44:32.631Z,4.20
2019-05-09T06:49:34.237Z,4.43
2019-05-09T06:54:35.813Z,3.90
2019-05-09T06:59:38.306Z,4.30
2019-05-09T07:04:39.671Z,4.13
2019-05-09T07:09:41.133Z,4.67
2019-05-09T07:14:42.620Z,4.50
2019-05-09T07:19:44.318Z,4.30
2019-05-09T07:24:48.008Z,4.43
2019-05-09T07:29:49.430Z,4.43
2019-05-09T07:34:51.278Z,4.40
2019-05-09T07:39:52.901Z,4.43
2019-05-09T07:44:54.579Z,5.03
2019-05-09T07:49:58.387Z,4.43
2019-05-09T07:54:59.861Z,3.40
2019-05-09T08:00:01.361Z,4.00
2019-05-09T08:05:02.928Z,3.60
2019-05-09T08:10:04.484Z,3.97
2019-05-09T08:15:13.339Z,3.13
2019-05-09T08:20:09.334Z,3.67
2019-05-09T08:25:10.896Z,3.60
2019-05-09T08:30:12.440Z,3.97
2019-05-09T08:35:13.871Z,3.72
2019-05-09T08:40:15.400Z,4.20
2019-05-09T08:45:25.271Z,3.83
2019-05-09T08:50:20.541Z,4.95
2019-05-09T08:55:22.063Z,4.85
2019-05-09T09:00:23.567Z,5.15
2019-05-09T09:05:25.097Z,5.60
2019-05-09T09:10:29.140Z,5.40
2019-05-09T09:15:55.724Z,4.90
2019-05-09T09:20:33.370Z,5.33
2019-05-09T09:25:34.867Z,5.62
2019-05-09T09:30:38.598Z,5.30
2019-05-09T09:35:39.941Z,4.70
2019-05-09T09:40:41.443Z,4.92
2019-05-09T09:45:42.879Z,3.92
2019-05-09T09:50:44.541Z,3.80
2019-05-09T09:55:47.617Z,3.95
2019-05-09T10:00:49.332Z,3.98
2019-05-09T10:05:50.926Z,4.03
2019-05-09T10:10:52.469Z,3.70
2019-05-09T10:15:54.023Z,3.40
2019-05-09T10:20:55.633Z,4.30
2019-05-09T10:25:58.193Z,3.85
2019-05-09T10:30:59.851Z,3.83
2019-05-09T10:36:04.470Z,4.08
2019-05-09T10:41:04.965Z,3.67
2019-05-09T10:46:08.355Z,4.00
2019-05-09T10:51:10.651Z,5.28
2019-05-09T10:56:12.439Z,5.95
2019-05-09T11:01:13.857Z,5.42
2019-05-09T11:06:18.019Z,4.97
2019-05-09T11:11:18.915Z,4.30
2019-05-09T11:16:20.389Z,5.50
2019-05-09T11:21:21.818Z,5.30
2019-05-09T11:26:24.299Z,4.60
2019-05-09T11:31:25.713Z,3.58
2019-05-09T11:36:27.357Z,3.50
2019-05-09T11:41:29.672Z,3.00
2019-05-09T11:46:31.952Z,3.40
2019-05-09T11:51:33.590Z,2.70
2019-05-09T11:56:35.305Z,2.75
2019-05-09T12:01:39.454Z,2.52
2019-05-09T12:06:40.274Z,3.25
2019-05-09T12:11:44.601Z,2.67
2019-05-09T12:16:47.820Z,2.30
2019-05-09T12:21:48.761Z,2.83
2019-05-09T12:26:50.419Z,2.90
2019-05-09T12:31:51.965Z,2.60
2019-05-09T12:36:53.837Z,3.05
2019-05-09T12:41:57.682Z,5.17
2019-05-09T12:46:58.802Z,5.42
2019-05-09T12:52:00.412Z,5.62
2019-05-09T12:57:01.912Z,8.00
2019-05-09T13:02:03.485Z,5.35
2019-05-09T13:07:04.965Z,8.68
2019-05-09T13:12:08.634Z,8.35
2019-05-09T13:17:09.754Z,10.32
2019-05-09T13:22:11.442Z,6.85
2019-05-09T13:27:12.987Z,7.37
2019-05-09T13:32:14.486Z,4.30
2019-05-09T13:37:18.616Z,3.40
2019-05-09T13:42:19.952Z,3.47
2019-05-09T13:47:21.682Z,4.90
2019-05-09T13:52:23.191Z,5.85
2019-05-09T13:57:24.759Z,7.28
2019-05-09T14:02:28.527Z,7.33
2019-05-09T14:07:29.678Z,7.50
2019-05-09T14:12:31.158Z,8.13
2019-05-09T14:17:45.977Z,7.10
2019-05-09T14:22:38.428Z,6.10
2019-05-09T14:27:39.524Z,6.85
2019-05-09T14:32:41.168Z,6.72
2019-05-09T14:37:42.763Z,6.05
2019-05-09T14:42:44.412Z,4.45
2019-05-09T14:47:45.949Z,4.72
2019-05-09T14:52:49.357Z,3.30
2019-05-09T14:57:50.962Z,1.72
2019-05-09T15:02:52.599Z,3.30
2019-05-09T15:07:54.254Z,2.30
2019-05-09T15:12:58.362Z,2.45
2019-05-09T15:17:59.254Z,4.10
2019-05-09T15:23:00.819Z,4.15
2019-05-09T15:28:02.319Z,4.50
2019-05-09T15:33:03.781Z,4.22
2019-05-09T15:38:05.209Z,4.00
2019-05-09T15:43:08.275Z,4.97
2019-05-09T15:48:09.917Z,4.25
2019-05-09T15:53:11.309Z,4.28
2019-05-09T15:58:13.073Z,4.20
2019-05-09T16:03:14.578Z,4.30
2019-05-09T16:08:18.574Z,4.62
2019-05-09T16:13:19.997Z,4.60
2019-05-09T16:18:21.460Z,3.92
2019-05-09T16:23:23.357Z,3.65
2019-05-09T16:28:25.133Z,4.70
2019-05-09T16:33:27.905Z,3.55
2019-05-09T16:38:42.176Z,3.90
2019-05-09T16:43:33.195Z,2.75
2019-05-09T16:48:34.957Z,2.72
2019-05-09T16:53:36.892Z,2.62
2019-05-09T16:58:38.495Z,3.02
2019-05-09T17:03:40.168Z,2.30
2019-05-09T17:08:41.816Z,2.58
2019-05-09T17:13:43.374Z,2.50
2019-05-09T17:18:44.979Z,1.90
2019-05-09T17:23:47.627Z,2.52
2019-05-09T17:28:49.339Z,1.70
2019-05-09T17:33:50.924Z,1.70
2019-05-09T17:38:52.455Z,1.92
2019-05-09T17:43:58.231Z,1.85
2019-05-09T17:49:00.181Z,2.45
2019-05-09T17:54:01.718Z,3.75
2019-05-09T17:59:03.257Z,3.10
2019-05-09T18:04:04.788Z,2.50
2019-05-09T18:09:08.438Z,2.60
2019-05-09T18:14:09.689Z,2.57
2019-05-09T18:19:11.408Z,2.37
2019-05-09T18:24:12.836Z,1.90
2019-05-09T18:29:14.368Z,2.03
2019-05-09T18:34:18.568Z,2.17
2019-05-09T18:39:19.948Z,2.83
2019-05-09T18:44:21.527Z,3.23
2019-05-09T18:49:23.086Z,2.60
2019-05-09T18:54:24.617Z,2.60
2019-05-09T18:59:26.147Z,2.60
2019-05-09T19:04:27.654Z,3.50
2019-05-09T19:09:29.201Z,3.30
2019-05-09T19:14:30.740Z,3.87
2019-05-09T19:19:32.213Z,3.27
2019-05-09T19:24:33.846Z,4.33
2019-05-09T19:29:35.575Z,5.23
2019-05-09T19:34:37.363Z,6.97
2019-05-09T19:39:39.553Z,5.07
2019-05-09T19:44:41.089Z,5.37
2019-05-09T19:49:42.632Z,6.30
2019-05-09T19:54:45.670Z,5.90
2019-05-09T19:59:47.416Z,6.50
2019-05-09T20:04:49.055Z,5.17
2019-05-09T20:09:50.636Z,5.30
2019-05-09T20:14:52.369Z,5.43
2019-05-09T20:19:54.090Z,5.07
2019-05-09T20:24:55.741Z,5.53
2019-05-09T20:29:57.654Z,5.10
2019-05-09T20:34:59.140Z,5.00
2019-05-09T20:40:00.675Z,5.23
2019-05-09T20:45:02.241Z,5.40
2019-05-09T20:50:03.689Z,5.90
2019-05-09T20:55:05.236Z,6.50
2019-05-09T21:00:06.717Z,7.33
2019-05-09T21:05:08.236Z,8.50
2019-05-09T21:10:09.849Z,8.70
2019-05-09T21:15:11.365Z,9.07
2019-05-09T21:20:12.929Z,9.07
2019-05-09T21:25:14.421Z,8.73
2019-05-09T21:30:15.947Z,8.13
2019-05-09T21:35:17.460Z,8.37
2019-05-09T21:40:19.152Z,8.50
2019-05-09T21:45:20.681Z,8.83
2019-05-09T21:50:22.212Z,10.00
2019-05-09T21:55:23.715Z,10.90
2019-05-09T22:00:27.631Z,10.47
2019-05-09T22:05:29.140Z,11.37
2019-05-09T22:10:30.634Z,11.07
2019-05-09T22:15:32.150Z,10.23
2019-05-09T22:20:33.679Z,10.37
2019-05-09T22:25:35.229Z,10.17
2019-05-09T22:30:36.599Z,11.30
2019-05-09T22:35:38.107Z,9.23
2019-05-09T22:40:39.644Z,9.53
2019-05-09T22:45:41.098Z,8.93
2019-05-09T22:50:42.654Z,10.00
2019-05-09T22:55:44.073Z,9.80
2019-05-09T23:00:45.509Z,10.70
2019-05-09T23:05:46.998Z,10.70
2019-05-09T23:10:48.522Z,11.23
2019-05-09T23:15:50.012Z,12.37
2019-05-09T23:20:51.562Z,12.70
2019-05-09T23:25:53.090Z,13.57
2019-05-09T23:30:54.592Z,16.00
2019-05-09T23:35:55.996Z,17.07
2019-05-09T23:40:57.417Z,17.97
2019-05-09T23:45:58.992Z,18.03
2019-05-09T23:51:00.429Z,18.83
2019-05-09T23:56:01.879Z,20.93
